Terminal Aerodrome Forecast
Issued by NWS Boise, ID

Home | Current Version | Previous Version | Text Only | Print | Product List | Glossary On
Versions: 1 2 3 4 5 6 7 8 9 10 11 12 13 14 15 16 17 18 19
000
FTUS45 KBOI 250014 AAB
TAFBNO
TAF AMD
KBNO 250014Z 2500/2524 28008KT P6SM VCSH BKN070
     FM250800 25007KT P6SM -RA OVC040
     FM252200 27012G20KT P6SM -SHRA BKN050 OVC100=

USA.gov is the U.S. government's official web portal to all federal, state and local government web resources and services.